sensor_id;sensor_type;location;lat;lon;timestamp;P1;durP1;ratioP1;P2;durP2;ratioP2
54545;SDS011;40444;45.184;9.850;2022-11-14T17:02:17;38.63;;;26.20;;
54545;SDS011;40444;45.184;9.850;2022-11-14T17:05:04;37.35;;;26.42;;
54545;SDS011;40444;45.184;9.850;2022-11-14T17:07:51;41.28;;;28.75;;
54545;SDS011;40444;45.184;9.850;2022-11-14T17:10:41;38.53;;;27.60;;
54545;SDS011;40444;45.184;9.850;2022-11-14T17:13:28;37.72;;;26.75;;
54545;SDS011;40444;45.184;9.850;2022-11-14T17:16:16;36.20;;;27.23;;
54545;SDS011;40444;45.184;9.850;2022-11-14T17:19:03;36.65;;;26.88;;
54545;SDS011;40444;45.184;9.850;2022-11-14T17:21:50;36.65;;;27.27;;
54545;SDS011;40444;45.184;9.850;2022-11-14T17:24:38;36.30;;;27.27;;
54545;SDS011;40444;45.184;9.850;2022-11-14T17:27:26;35.85;;;26.05;;
54545;SDS011;40444;45.184;9.850;2022-11-14T17:30:13;35.85;;;26.30;;
54545;SDS011;40444;45.184;9.850;2022-11-14T17:33:01;34.38;;;24.73;;
54545;SDS011;40444;45.184;9.850;2022-11-14T17:35:48;31.73;;;24.63;;
54545;SDS011;40444;45.184;9.850;2022-11-14T17:38:35;33.17;;;24.77;;
54545;SDS011;40444;45.184;9.850;2022-11-14T17:41:23;32.40;;;23.67;;
54545;SDS011;40444;45.184;9.850;2022-11-14T17:44:10;34.22;;;24.42;;
54545;SDS011;40444;45.184;9.850;2022-11-14T17:46:57;34.00;;;24.23;;
54545;SDS011;40444;45.184;9.850;2022-11-14T17:49:44;32.55;;;24.73;;
54545;SDS011;40444;45.184;9.850;2022-11-14T17:52:30;36.20;;;26.77;;
54545;SDS011;40444;45.184;9.850;2022-11-14T17:55:17;36.30;;;25.83;;
54545;SDS011;40444;45.184;9.850;2022-11-14T17:58:04;36.10;;;26.13;;
54545;SDS011;40444;45.184;9.850;2022-11-14T18:00:50;36.95;;;27.08;;
54545;SDS011;40444;45.184;9.850;2022-11-14T18:03:38;37.80;;;26.90;;
54545;SDS011;40444;45.184;9.850;2022-11-14T18:06:25;38.75;;;26.85;;
54545;SDS011;40444;45.184;9.850;2022-11-14T18:09:12;38.20;;;28.08;;
54545;SDS011;40444;45.184;9.850;2022-11-14T18:11:59;41.42;;;28.90;;
54545;SDS011;40444;45.184;9.850;2022-11-14T18:14:46;36.58;;;27.77;;
54545;SDS011;40444;45.184;9.850;2022-11-14T18:17:32;40.40;;;30.30;;
54545;SDS011;40444;45.184;9.850;2022-11-14T18:20:19;41.75;;;29.60;;
54545;SDS011;40444;45.184;9.850;2022-11-14T18:23:06;35.20;;;27.35;;
54545;SDS011;40444;45.184;9.850;2022-11-14T18:25:53;41.03;;;28.85;;
54545;SDS011;40444;45.184;9.850;2022-11-14T18:28:40;38.90;;;27.20;;
54545;SDS011;40444;45.184;9.850;2022-11-14T18:34:15;36.67;;;25.98;;
54545;SDS011;40444;45.184;9.850;2022-11-14T18:37:02;40.50;;;27.30;;
54545;SDS011;40444;45.184;9.850;2022-11-14T18:39:49;41.15;;;27.55;;
54545;SDS011;40444;45.184;9.850;2022-11-14T18:42:37;40.15;;;27.63;;
54545;SDS011;40444;45.184;9.850;2022-11-14T18:45:23;38.33;;;26.17;;
54545;SDS011;40444;45.184;9.850;2022-11-14T18:48:10;39.20;;;27.90;;
54545;SDS011;40444;45.184;9.850;2022-11-14T18:51:04;39.00;;;27.25;;
54545;SDS011;40444;45.184;9.850;2022-11-14T18:53:56;41.65;;;27.98;;
54545;SDS011;40444;45.184;9.850;2022-11-14T18:56:44;40.35;;;26.95;;
54545;SDS011;40444;45.184;9.850;2022-11-14T18:59:31;35.80;;;25.50;;
54545;SDS011;40444;45.184;9.850;2022-11-14T19:02:18;40.38;;;28.42;;
54545;SDS011;40444;45.184;9.850;2022-11-14T19:05:05;39.15;;;28.33;;
54545;SDS011;40444;45.184;9.850;2022-11-14T19:07:51;39.53;;;27.43;;
54545;SDS011;40444;45.184;9.850;2022-11-14T19:10:39;36.60;;;27.25;;
54545;SDS011;40444;45.184;9.850;2022-11-14T19:13:25;39.92;;;27.08;;
54545;SDS011;40444;45.184;9.850;2022-11-14T19:16:14;39.05;;;27.55;;
54545;SDS011;40444;45.184;9.850;2022-11-14T19:19:02;40.17;;;27.63;;
54545;SDS011;40444;45.184;9.850;2022-11-14T19:21:52;41.30;;;29.15;;
54545;SDS011;40444;45.184;9.850;2022-11-14T19:24:39;42.17;;;28.83;;
54545;SDS011;40444;45.184;9.850;2022-11-14T19:27:34;40.97;;;28.27;;
